createdAt,value
2017-11-15T00:01:27.103Z,24.90
2017-11-15T00:03:56.221Z,24.73
2017-11-15T00:06:25.336Z,26.02
2017-11-15T00:08:54.514Z,26.27
2017-11-15T00:11:23.604Z,23.90
2017-11-15T00:13:52.775Z,24.00
2017-11-15T00:16:22.185Z,25.73
2017-11-15T00:18:51.385Z,21.42
2017-11-15T00:21:20.500Z,21.27
2017-11-15T00:23:50.004Z,25.35
2017-11-15T00:26:19.163Z,22.33
2017-11-15T00:28:49.116Z,22.87
2017-11-15T00:31:18.766Z,21.77
2017-11-15T00:33:47.955Z,22.85
2017-11-15T00:36:17.139Z,24.98
2017-11-15T00:38:47.700Z,24.60
2017-11-15T00:41:16.824Z,24.00
2017-11-15T00:43:46.120Z,24.08
2017-11-15T00:46:15.356Z,25.48
2017-11-15T00:48:44.661Z,22.65
2017-11-15T00:51:13.859Z,24.77
2017-11-15T00:53:43.326Z,21.45
2017-11-15T00:56:12.468Z,23.38
2017-11-15T00:58:41.641Z,21.62
2017-11-15T01:01:11.553Z,21.90
2017-11-15T01:03:42.372Z,19.95
2017-11-15T01:06:11.536Z,20.35
2017-11-15T01:08:41.552Z,19.75
2017-11-15T01:11:10.704Z,19.52
2017-11-15T01:13:41.518Z,21.05
2017-11-15T01:16:11.134Z,22.98
2017-11-15T01:18:40.241Z,19.92
2017-11-15T01:21:09.330Z,20.83
2017-11-15T01:23:38.500Z,19.87
2017-11-15T01:26:08.373Z,22.27
2017-11-15T01:28:37.522Z,19.77
2017-11-15T01:31:07.508Z,20.20
2017-11-15T01:33:36.634Z,22.23
2017-11-15T01:36:05.744Z,23.15
2017-11-15T01:38:34.964Z,21.90
2017-11-15T01:41:04.852Z,20.17
2017-11-15T01:43:34.037Z,21.65
2017-11-15T01:46:03.312Z,19.15
2017-11-15T01:48:32.452Z,21.85
2017-11-15T01:51:01.603Z,21.67
2017-11-15T01:53:31.062Z,21.02
2017-11-15T01:56:00.976Z,22.40
2017-11-15T01:58:30.142Z,22.37
2017-11-15T02:01:14.606Z,18.65
2017-11-15T02:03:43.822Z,20.25
2017-11-15T02:06:13.033Z,20.65
2017-11-15T02:08:42.229Z,21.05
2017-11-15T02:11:11.337Z,21.23
2017-11-15T02:13:40.478Z,22.40
2017-11-15T02:16:09.997Z,21.80
2017-11-15T02:18:39.130Z,22.75
2017-11-15T02:21:08.276Z,22.65
2017-11-15T02:23:38.218Z,21.37
2017-11-15T02:26:07.379Z,20.27
2017-11-15T02:28:38.039Z,20.02
2017-11-15T02:31:08.253Z,19.52
2017-11-15T02:33:37.383Z,19.58
2017-11-15T02:36:06.516Z,19.62
2017-11-15T02:38:36.810Z,17.42
2017-11-15T02:41:05.992Z,19.35
2017-11-15T02:43:35.236Z,17.90
2017-11-15T02:46:04.419Z,18.73
2017-11-15T02:48:33.558Z,18.77
2017-11-15T02:51:02.704Z,20.85
2017-11-15T02:53:32.682Z,19.55
2017-11-15T02:56:01.868Z,18.50
2017-11-15T02:58:30.981Z,17.70
2017-11-15T03:01:00.168Z,21.40
2017-11-15T03:03:29.273Z,25.55
2017-11-15T03:05:59.136Z,21.83
2017-11-15T03:08:28.566Z,21.40
2017-11-15T03:10:57.764Z,24.50
2017-11-15T03:13:26.865Z,26.45
2017-11-15T03:15:57.090Z,23.98
2017-11-15T03:18:26.224Z,23.98
2017-11-15T03:20:55.375Z,23.92
2017-11-15T03:23:24.499Z,25.33
2017-11-15T03:25:54.407Z,24.37
2017-11-15T03:28:24.298Z,24.80
2017-11-15T03:30:54.243Z,24.10
2017-11-15T03:33:23.410Z,21.60
2017-11-15T03:35:52.531Z,24.65
2017-11-15T03:38:22.573Z,23.20
2017-11-15T03:40:51.693Z,24.90
2017-11-15T03:43:20.864Z,23.15
2017-11-15T03:45:50.156Z,23.98
2017-11-15T03:48:20.032Z,24.92
2017-11-15T03:50:49.271Z,24.20
2017-11-15T03:53:19.590Z,22.27
2017-11-15T03:55:48.704Z,25.80
2017-11-15T03:58:17.845Z,22.65
2017-11-15T04:00:47.819Z,24.08
2017-11-15T04:03:17.002Z,23.08
2017-11-15T04:05:46.439Z,24.40
2017-11-15T04:08:15.794Z,25.17
2017-11-15T04:10:45.110Z,22.50
2017-11-15T04:13:14.461Z,24.12
2017-11-15T04:15:44.013Z,22.62
2017-11-15T04:18:13.301Z,21.87
2017-11-15T04:20:42.425Z,21.40
2017-11-15T04:23:11.578Z,21.00
2017-11-15T04:25:41.464Z,20.83
2017-11-15T04:28:10.570Z,23.25
2017-11-15T04:30:40.005Z,22.25
2017-11-15T04:33:09.099Z,21.55
2017-11-15T04:35:38.271Z,23.23
2017-11-15T04:38:08.186Z,21.50
2017-11-15T04:40:38.044Z,20.17
2017-11-15T04:43:07.139Z,21.33
2017-11-15T04:45:36.861Z,23.92
2017-11-15T04:48:06.026Z,22.33
2017-11-15T04:50:35.137Z,22.25
2017-11-15T04:53:04.295Z,21.95
2017-11-15T04:55:33.412Z,22.00
2017-11-15T04:58:02.590Z,22.23
2017-11-15T05:00:32.812Z,21.50
2017-11-15T05:03:01.951Z,23.65
2017-11-15T05:05:31.071Z,25.20
2017-11-15T05:08:00.236Z,22.42
2017-11-15T05:10:29.531Z,22.85
2017-11-15T05:12:58.645Z,21.00
2017-11-15T05:15:28.524Z,20.80
2017-11-15T05:17:57.651Z,21.17
2017-11-15T05:20:27.006Z,19.90
2017-11-15T05:22:56.224Z,18.90
2017-11-15T05:25:25.341Z,18.30
2017-11-15T05:27:55.258Z,18.50
2017-11-15T05:30:24.865Z,16.12
2017-11-15T05:32:54.066Z,16.80
2017-11-15T05:35:23.177Z,16.05
2017-11-15T05:37:52.645Z,16.17
2017-11-15T05:40:22.584Z,14.55
2017-11-15T05:42:51.788Z,14.18
2017-11-15T05:45:21.695Z,13.68
2017-11-15T05:47:51.011Z,13.70
2017-11-15T05:50:20.192Z,12.75
2017-11-15T05:52:49.462Z,13.10
2017-11-15T05:55:18.683Z,12.32
2017-11-15T05:57:47.991Z,13.05
2017-11-15T06:00:17.698Z,14.55
2017-11-15T06:02:46.922Z,13.07
2017-11-15T06:05:16.102Z,13.75
2017-11-15T06:07:46.411Z,11.63
2017-11-15T06:10:15.797Z,13.05
2017-11-15T06:12:45.070Z,11.43
2017-11-15T06:15:15.862Z,13.57
2017-11-15T06:17:45.103Z,12.68
2017-11-15T06:20:14.449Z,11.25
2017-11-15T06:22:44.204Z,12.25
2017-11-15T06:25:13.416Z,11.38
2017-11-15T06:27:42.606Z,11.68
2017-11-15T06:30:12.060Z,10.48
2017-11-15T06:32:41.109Z,11.18
2017-11-15T06:35:11.052Z,11.27
2017-11-15T06:37:40.323Z,10.85
2017-11-15T06:40:09.346Z,12.15
2017-11-15T06:42:38.467Z,9.70
2017-11-15T06:45:08.384Z,9.63
2017-11-15T06:47:37.491Z,10.18
2017-11-15T06:50:07.448Z,9.80
2017-11-15T06:52:40.125Z,10.25
2017-11-15T06:55:10.098Z,9.13
2017-11-15T06:57:40.091Z,7.70
2017-11-15T07:00:10.083Z,8.00
2017-11-15T07:02:39.329Z,8.70
2017-11-15T07:05:09.576Z,8.38
2017-11-15T07:07:38.876Z,7.78
2017-11-15T07:10:08.162Z,7.18
2017-11-15T07:12:37.561Z,7.90
2017-11-15T07:15:08.310Z,7.15
2017-11-15T07:17:37.550Z,8.00
2017-11-15T07:20:07.456Z,6.55
2017-11-15T07:22:36.705Z,6.90
2017-11-15T07:25:06.921Z,8.25
2017-11-15T07:27:36.470Z,7.70
2017-11-15T07:30:06.440Z,7.45
2017-11-15T07:32:35.817Z,7.28
2017-11-15T07:35:05.788Z,7.93
2017-11-15T07:37:35.046Z,7.22
2017-11-15T07:40:05.034Z,7.55
2017-11-15T07:42:35.449Z,9.65
2017-11-15T07:45:04.572Z,9.98
2017-11-15T07:47:33.670Z,9.48
2017-11-15T07:50:03.044Z,9.27
2017-11-15T07:52:32.942Z,10.10
2017-11-15T07:55:02.087Z,10.50
2017-11-15T07:57:32.016Z,10.85
2017-11-15T08:00:01.910Z,13.75
2017-11-15T08:02:31.058Z,12.68
2017-11-15T08:05:01.098Z,14.02
2017-11-15T08:07:30.216Z,11.00
2017-11-15T08:09:59.361Z,12.93
2017-11-15T08:12:29.276Z,14.80
2017-11-15T08:14:58.395Z,15.07
2017-11-15T08:17:27.492Z,14.77
2017-11-15T08:19:57.713Z,15.63
2017-11-15T08:22:26.870Z,15.25
2017-11-15T08:24:55.981Z,14.95
2017-11-15T08:27:25.922Z,14.38
2017-11-15T08:29:55.056Z,16.83
2017-11-15T08:32:24.176Z,16.08
2017-11-15T08:34:54.198Z,14.87
2017-11-15T08:37:23.326Z,17.02
2017-11-15T08:39:52.658Z,16.80
2017-11-15T08:42:22.644Z,17.17
2017-11-15T08:44:51.878Z,15.52
2017-11-15T08:47:21.067Z,16.23
2017-11-15T08:49:50.679Z,14.25
2017-11-15T08:52:20.015Z,16.12
2017-11-15T08:54:49.607Z,18.20
2017-11-15T08:57:18.868Z,16.00
2017-11-15T08:59:48.088Z,16.08
2017-11-15T09:02:17.257Z,15.13
2017-11-15T09:04:46.586Z,14.95
2017-11-15T09:07:15.884Z,16.77
2017-11-15T09:09:45.085Z,14.80
2017-11-15T09:12:14.445Z,14.75
2017-11-15T09:14:43.597Z,15.55
2017-11-15T09:17:12.754Z,14.30
2017-11-15T09:19:43.220Z,13.57
2017-11-15T09:22:12.350Z,15.55
2017-11-15T09:24:41.491Z,12.50
2017-11-15T09:27:10.946Z,13.73
2017-11-15T09:29:40.103Z,14.65
2017-11-15T09:32:09.244Z,13.55
2017-11-15T09:34:38.408Z,14.52
2017-11-15T09:37:07.545Z,13.85
2017-11-15T09:39:36.662Z,16.05
2017-11-15T09:42:06.294Z,16.37
2017-11-15T09:44:35.473Z,15.70
2017-11-15T09:47:04.600Z,15.85
2017-11-15T09:49:34.708Z,17.45
2017-11-15T09:52:04.613Z,15.27
2017-11-15T09:54:33.781Z,13.27
2017-11-15T09:57:02.958Z,12.70
2017-11-15T09:59:32.074Z,13.05
2017-11-15T10:02:02.125Z,13.85
2017-11-15T10:04:31.291Z,14.13
2017-11-15T10:07:01.195Z,14.50
2017-11-15T10:09:30.333Z,14.70
2017-11-15T10:12:01.234Z,16.50
2017-11-15T10:14:30.332Z,16.00
2017-11-15T10:17:07.348Z,14.70
2017-11-15T10:19:38.065Z,13.80
2017-11-15T10:22:07.405Z,14.30
2017-11-15T10:24:36.552Z,16.50
2017-11-15T10:27:05.678Z,17.10
2017-11-15T10:29:36.279Z,16.37
2017-11-15T10:32:05.418Z,18.20
2017-11-15T10:34:35.381Z,17.53
2017-11-15T10:37:04.545Z,17.30
2017-11-15T10:39:33.668Z,20.07
2017-11-15T10:42:03.556Z,19.37
2017-11-15T10:44:32.804Z,17.00
2017-11-15T10:47:01.952Z,19.10
2017-11-15T10:49:31.045Z,16.30
2017-11-15T10:52:00.245Z,17.87
2017-11-15T10:54:30.132Z,17.77
2017-11-15T10:56:59.700Z,17.80
2017-11-15T10:59:29.004Z,17.43
2017-11-15T11:01:58.929Z,17.50
2017-11-15T11:04:28.893Z,16.90
2017-11-15T11:06:58.674Z,19.07
2017-11-15T11:09:27.864Z,18.37
2017-11-15T11:11:57.001Z,18.37
2017-11-15T11:14:27.327Z,17.00
2017-11-15T11:16:57.230Z,16.27
2017-11-15T11:19:26.453Z,15.80
2017-11-15T11:21:55.891Z,15.80
2017-11-15T11:24:25.213Z,14.07
2017-11-15T11:26:54.411Z,14.47
2017-11-15T11:29:24.558Z,13.13
2017-11-15T11:31:53.732Z,13.73
2017-11-15T11:34:23.891Z,13.30
2017-11-15T11:36:54.246Z,14.97
2017-11-15T11:39:23.558Z,13.60
2017-11-15T11:41:52.776Z,11.27
2017-11-15T11:44:22.783Z,12.27
2017-11-15T11:46:52.730Z,12.17
2017-11-15T11:49:22.492Z,10.67
2017-11-15T11:51:51.936Z,10.97
2017-11-15T11:54:21.290Z,10.57
2017-11-15T11:56:50.456Z,12.57
2017-11-15T11:59:21.546Z,10.80
2017-11-15T12:01:50.696Z,11.30
2017-11-15T12:04:19.886Z,9.93
2017-11-15T12:06:49.266Z,10.70
2017-11-15T12:09:19.230Z,12.40
2017-11-15T12:11:48.441Z,10.93
2017-11-15T12:14:17.739Z,8.70
2017-11-15T12:16:46.932Z,7.63
2017-11-15T12:19:16.846Z,7.97
2017-11-15T12:21:47.014Z,9.60
2017-11-15T12:24:16.254Z,10.93
2017-11-15T12:26:45.554Z,10.40
2017-11-15T12:29:14.811Z,9.23
2017-11-15T12:31:44.966Z,10.60
2017-11-15T12:34:15.044Z,10.63
2017-11-15T12:36:45.164Z,8.63
2017-11-15T12:39:15.015Z,8.70
2017-11-15T12:41:44.308Z,8.03
2017-11-15T12:44:14.350Z,8.57
2017-11-15T12:46:44.234Z,8.30
2017-11-15T12:49:13.463Z,7.80
2017-11-15T12:51:43.388Z,8.60
2017-11-15T12:54:22.982Z,8.20
2017-11-15T12:56:52.807Z,7.87
2017-11-15T12:59:22.112Z,8.03
2017-11-15T13:01:51.235Z,6.50
2017-11-15T13:04:20.450Z,6.63
2017-11-15T13:06:49.656Z,6.20
2017-11-15T13:09:18.797Z,4.80
2017-11-15T13:11:49.115Z,5.60
2017-11-15T13:14:18.507Z,4.70
2017-11-15T13:16:47.717Z,4.20
2017-11-15T13:19:17.630Z,4.43
2017-11-15T13:21:46.833Z,4.53
2017-11-15T13:24:17.552Z,4.07
2017-11-15T13:26:48.839Z,4.63
2017-11-15T13:29:18.051Z,3.60
2017-11-15T13:31:47.226Z,3.70
2017-11-15T13:34:17.652Z,2.93
2017-11-15T13:36:46.889Z,3.40
2017-11-15T13:39:16.022Z,2.90
2017-11-15T13:41:45.808Z,3.30
2017-11-15T13:44:16.158Z,3.40
2017-11-15T13:46:46.122Z,2.93
2017-11-15T13:49:15.353Z,2.63
2017-11-15T13:51:45.757Z,3.40
2017-11-15T13:54:15.932Z,3.10
2017-11-15T13:56:45.181Z,2.93
2017-11-15T13:59:14.413Z,2.30
2017-11-15T14:01:43.617Z,2.57
2017-11-15T14:04:12.972Z,1.60
2017-11-15T14:06:42.138Z,1.97
2017-11-15T14:09:11.345Z,1.73
2017-11-15T14:11:40.484Z,2.07
2017-11-15T14:14:09.619Z,1.43
2017-11-15T14:16:38.938Z,1.70
2017-11-15T14:19:08.082Z,2.40
2017-11-15T14:21:37.994Z,2.10
2017-11-15T14:24:09.322Z,1.73
2017-11-15T14:26:38.416Z,2.60
2017-11-15T14:29:08.476Z,3.73
2017-11-15T14:31:38.859Z,2.00
2017-11-15T14:34:07.956Z,2.03
2017-11-15T14:36:37.869Z,2.27
2017-11-15T14:39:08.085Z,2.97
2017-11-15T14:41:37.228Z,2.10
2017-11-15T14:44:07.155Z,2.10
2017-11-15T14:46:36.549Z,2.77
2017-11-15T14:49:05.827Z,2.73
2017-11-15T14:51:34.970Z,2.40
2017-11-15T14:54:05.333Z,2.73
2017-11-15T14:56:35.188Z,2.10
2017-11-15T14:59:04.346Z,2.63
2017-11-15T15:01:34.859Z,3.00
2017-11-15T15:04:03.987Z,4.07
2017-11-15T15:06:33.542Z,4.00
2017-11-15T15:09:03.627Z,2.60
2017-11-15T15:11:32.793Z,3.23
2017-11-15T15:14:01.953Z,2.47
2017-11-15T15:16:33.219Z,3.00
2017-11-15T15:19:02.323Z,3.57
2017-11-15T15:21:31.820Z,3.17
2017-11-15T15:24:02.497Z,3.40
2017-11-15T15:26:31.595Z,3.40
2017-11-15T15:29:00.730Z,2.97
2017-11-15T15:31:31.050Z,3.20
2017-11-15T15:34:00.984Z,3.42
2017-11-15T15:36:30.886Z,3.53
2017-11-15T15:39:00.394Z,3.45
2017-11-15T15:41:29.542Z,2.58
2017-11-15T15:43:58.639Z,2.60
2017-11-15T15:46:27.803Z,3.25
2017-11-15T15:48:56.910Z,3.85
2017-11-15T15:51:26.177Z,3.42
2017-11-15T15:53:55.951Z,3.37
2017-11-15T15:56:25.068Z,3.10
2017-11-15T15:58:54.204Z,3.95
2017-11-15T16:01:23.385Z,3.35
2017-11-15T16:03:53.333Z,3.40
2017-11-15T16:06:22.594Z,1.87
2017-11-15T16:08:51.916Z,2.60
2017-11-15T16:11:21.091Z,3.05
2017-11-15T16:13:51.071Z,3.45
2017-11-15T16:16:20.448Z,3.45
2017-11-15T16:18:49.622Z,4.47
2017-11-15T16:21:18.790Z,4.53
2017-11-15T16:23:49.225Z,3.85
2017-11-15T16:26:18.520Z,2.67
2017-11-15T16:28:48.449Z,3.50
2017-11-15T16:31:18.239Z,4.50
2017-11-15T16:33:47.397Z,4.72
2017-11-15T16:36:16.568Z,4.80
2017-11-15T16:38:46.000Z,4.20
2017-11-15T16:41:15.201Z,16.23
2017-11-15T16:43:44.468Z,11.70
2017-11-15T16:46:13.666Z,8.35
2017-11-15T16:48:43.279Z,7.57
2017-11-15T16:51:12.412Z,7.03
2017-11-15T16:53:41.615Z,9.27
2017-11-15T16:56:11.485Z,7.95
2017-11-15T16:58:41.060Z,6.47
2017-11-15T17:01:10.356Z,7.43
2017-11-15T17:03:40.304Z,7.45
2017-11-15T17:06:10.189Z,6.50
2017-11-15T17:08:39.355Z,8.13
2017-11-15T17:11:08.453Z,6.37
2017-11-15T17:13:37.556Z,7.20
2017-11-15T17:16:07.418Z,6.72
2017-11-15T17:18:36.536Z,10.70
2017-11-15T17:21:05.657Z,16.83
2017-11-15T17:23:36.215Z,11.43
2017-11-15T17:26:06.287Z,9.07
2017-11-15T17:28:36.145Z,8.68
2017-11-15T17:31:06.627Z,9.27
2017-11-15T17:33:38.745Z,10.02
2017-11-15T17:36:08.920Z,10.15
2017-11-15T17:38:38.029Z,9.00
2017-11-15T17:41:07.165Z,10.40
2017-11-15T17:43:36.674Z,7.78
2017-11-15T17:46:06.792Z,10.23
2017-11-15T17:48:36.026Z,9.30
2017-11-15T17:51:05.337Z,10.02
2017-11-15T17:53:35.303Z,7.97
2017-11-15T17:56:05.182Z,7.55
2017-11-15T17:58:35.133Z,9.35
2017-11-15T18:01:05.785Z,8.68
2017-11-15T18:03:34.916Z,10.00
2017-11-15T18:06:04.855Z,9.68
2017-11-15T18:08:34.704Z,10.65
2017-11-15T18:11:03.836Z,8.55
2017-11-15T18:13:34.168Z,10.75
2017-11-15T18:16:03.308Z,10.57
2017-11-15T18:18:33.238Z,11.45
2017-11-15T18:21:05.028Z,10.60
2017-11-15T18:23:34.919Z,9.68
2017-11-15T18:26:04.078Z,13.13
2017-11-15T18:28:34.226Z,10.60
2017-11-15T18:31:03.363Z,9.85
2017-11-15T18:33:32.478Z,9.70
2017-11-15T18:36:01.596Z,9.13
2017-11-15T18:38:30.691Z,9.75
2017-11-15T18:40:59.788Z,10.82
2017-11-15T18:43:29.548Z,9.68
2017-11-15T18:46:00.165Z,9.98
2017-11-15T18:48:29.700Z,8.90
2017-11-15T18:50:58.885Z,9.32
2017-11-15T18:53:27.997Z,9.50
2017-11-15T18:55:57.227Z,9.32
2017-11-15T18:58:26.516Z,11.50
2017-11-15T19:00:56.252Z,11.23
2017-11-15T19:03:25.539Z,9.38
2017-11-15T19:05:54.864Z,10.35
2017-11-15T19:08:24.018Z,11.25
2017-11-15T19:10:54.239Z,10.80
2017-11-15T19:13:23.522Z,10.23
2017-11-15T19:15:52.674Z,10.75
2017-11-15T19:18:23.008Z,10.98
2017-11-15T19:20:52.134Z,12.82
2017-11-15T19:23:21.314Z,11.63
2017-11-15T19:25:51.308Z,12.15
2017-11-15T19:28:20.489Z,12.30
2017-11-15T19:30:49.940Z,11.07
2017-11-15T19:33:19.600Z,13.27
2017-11-15T19:35:49.660Z,13.55
2017-11-15T19:38:18.870Z,13.02
2017-11-15T19:40:48.345Z,14.10
2017-11-15T19:43:17.623Z,15.65
2017-11-15T19:45:46.927Z,13.05
2017-11-15T19:48:16.986Z,18.67
2017-11-15T19:50:46.139Z,15.88
2017-11-15T19:53:16.111Z,14.45
2017-11-15T19:55:45.915Z,16.98
2017-11-15T19:58:15.143Z,14.85
2017-11-15T20:00:44.386Z,13.43
2017-11-15T20:03:14.426Z,13.15
2017-11-15T20:05:45.220Z,14.98
2017-11-15T20:08:14.596Z,14.57
2017-11-15T20:10:46.843Z,16.10
2017-11-15T20:13:17.166Z,14.75
2017-11-15T20:15:47.393Z,16.25
2017-11-15T20:18:18.481Z,16.90
2017-11-15T20:20:48.186Z,16.30
2017-11-15T20:23:20.102Z,14.32
2017-11-15T20:25:49.525Z,14.73
2017-11-15T20:28:19.749Z,15.45
2017-11-15T20:30:50.097Z,16.58
2017-11-15T20:33:19.378Z,15.25
2017-11-15T20:35:48.747Z,18.45
2017-11-15T20:38:18.590Z,17.50
2017-11-15T20:40:48.127Z,17.87
2017-11-15T20:43:17.605Z,15.75
2017-11-15T20:45:47.042Z,17.77
2017-11-15T20:48:16.299Z,18.02
2017-11-15T20:50:46.653Z,20.48
2017-11-15T20:53:17.503Z,20.35
2017-11-15T20:55:46.824Z,21.08
2017-11-15T20:58:17.094Z,22.83
2017-11-15T21:00:46.724Z,20.92
2017-11-15T21:03:16.846Z,18.08
2017-11-15T21:05:47.970Z,21.05
2017-11-15T21:08:18.089Z,21.60
2017-11-15T21:10:47.270Z,20.02
2017-11-15T21:13:16.534Z,19.65
2017-11-15T21:15:46.374Z,22.55
2017-11-15T21:18:15.878Z,21.25
2017-11-15T21:20:47.050Z,22.73
2017-11-15T21:23:17.282Z,22.40
2017-11-15T21:25:46.578Z,19.23
2017-11-15T21:28:16.185Z,20.95
2017-11-15T21:30:45.590Z,19.25
2017-11-15T21:33:15.024Z,18.70
2017-11-15T21:35:45.674Z,21.12
2017-11-15T21:38:15.205Z,20.67
2017-11-15T21:40:45.250Z,23.12
2017-11-15T21:43:14.626Z,21.90
2017-11-15T21:45:47.690Z,21.35
2017-11-15T21:48:19.722Z,19.90
2017-11-15T21:50:49.007Z,20.23
2017-11-15T21:53:18.410Z,21.15
2017-11-15T21:55:47.656Z,20.37
2017-11-15T21:58:16.850Z,21.00
2017-11-15T22:00:46.076Z,21.40
2017-11-15T22:03:16.682Z,18.83
2017-11-15T22:05:45.913Z,19.85
2017-11-15T22:08:15.975Z,19.12
2017-11-15T22:10:45.869Z,18.85
2017-11-15T22:13:15.962Z,20.85
2017-11-15T22:15:45.657Z,21.02
2017-11-15T22:18:18.921Z,18.52
2017-11-15T22:20:48.574Z,18.65
2017-11-15T22:23:17.977Z,20.55
2017-11-15T22:25:48.371Z,18.77
2017-11-15T22:28:18.349Z,16.42
2017-11-15T22:30:47.689Z,16.37
2017-11-15T22:33:17.046Z,16.33
2017-11-15T22:35:47.068Z,16.27
2017-11-15T22:38:18.748Z,18.70
2017-11-15T22:40:48.289Z,18.73
2017-11-15T22:43:17.623Z,16.95
2017-11-15T22:45:48.100Z,16.35
2017-11-15T22:48:18.098Z,17.73
2017-11-15T22:50:47.449Z,17.58
2017-11-15T22:53:17.496Z,17.08
2017-11-15T22:55:46.923Z,15.15
2017-11-15T22:58:18.190Z,16.10
2017-11-15T23:00:47.686Z,16.62
2017-11-15T23:03:17.833Z,18.42
2017-11-15T23:05:47.123Z,16.00
2017-11-15T23:08:17.288Z,14.45
2017-11-15T23:10:46.700Z,14.68
2017-11-15T23:13:15.853Z,13.82
2017-11-15T23:15:46.188Z,15.50
2017-11-15T23:18:15.607Z,15.40
2017-11-15T23:20:44.791Z,15.43
2017-11-15T23:23:14.012Z,16.33
2017-11-15T23:25:43.518Z,15.63
2017-11-15T23:28:12.612Z,14.40
2017-11-15T23:30:42.071Z,15.38
2017-11-15T23:33:11.163Z,13.85
2017-11-15T23:35:40.308Z,15.15
2017-11-15T23:38:09.558Z,14.57
2017-11-15T23:40:38.681Z,14.50
2017-11-15T23:43:07.801Z,13.23
2017-11-15T23:45:37.255Z,14.55
2017-11-15T23:48:07.120Z,14.00
2017-11-15T23:50:36.254Z,14.45
2017-11-15T23:53:05.515Z,12.80
2017-11-15T23:55:35.394Z,14.90
2017-11-15T23:58:04.489Z,11.70
